<?xml version="1.0" encoding="UTF-8" standalone="no" ?>
<gpx xmlns="http://www.topografix.com/GPX/1/1" xmlns:xsi="http://www.w3.org/2001/XMLSchema-instance" xsi:schemaLocation="http://www.topografix.com/GPX/1/1 http://www.topografix.com/GPX/1/1/gpx.xsd" version="1.1" creator="VisuGPX - https://www.visugpx.com">
  <metadata>
    <name>Le Massour</name>
    <desc><![CDATA[Sortie avec Franck.]]></desc>
  </metadata>
  <trk>
    <name><![CDATA[25-FEV-16 13:11:05]]></name>
    <trkseg>
      <trkpt lat="44.52532" lon="6.79976">
        <ele>1896.34</ele>
        <time>2016-02-25T07:57:54Z</time>
      </trkpt>
      <trkpt lat="44.5253" lon="6.79978">
        <ele>1894.42</ele>
        <time>2016-02-25T07:58:53Z</time>
      </trkpt>
      <trkpt lat="44.5255" lon="6.80051">
        <ele>1900.66</ele>
        <time>2016-02-25T07:59:54Z</time>
      </trkpt>
      <trkpt lat="44.52555" lon="6.80152">
        <ele>1903.07</ele>
        <time>2016-02-25T08:00:54Z</time>
      </trkpt>
      <trkpt lat="44.52567" lon="6.8019">
        <ele>1903.07</ele>
        <time>2016-02-25T08:01:54Z</time>
      </trkpt>
      <trkpt lat="44.52574" lon="6.80218">
        <ele>1903.07</ele>
        <time>2016-02-25T08:02:54Z</time>
      </trkpt>
      <trkpt lat="44.52599" lon="6.80315">
        <ele>1907.87</ele>
        <time>2016-02-25T08:03:54Z</time>
      </trkpt>
      <trkpt lat="44.52599" lon="6.804">
        <ele>1910.28</ele>
        <time>2016-02-25T08:04:54Z</time>
      </trkpt>
      <trkpt lat="44.52588" lon="6.80494">
        <ele>1920.37</ele>
        <time>2016-02-25T08:05:54Z</time>
      </trkpt>
      <trkpt lat="44.52564" lon="6.80585">
        <ele>1926.62</ele>
        <time>2016-02-25T08:06:54Z</time>
      </trkpt>
      <trkpt lat="44.52546" lon="6.80687">
        <ele>1928.06</ele>
        <time>2016-02-25T08:07:54Z</time>
      </trkpt>
      <trkpt lat="44.52527" lon="6.80734">
        <ele>1930.46</ele>
        <time>2016-02-25T08:08:53Z</time>
      </trkpt>
      <trkpt lat="44.52495" lon="6.80773">
        <ele>1932.39</ele>
        <time>2016-02-25T08:09:54Z</time>
      </trkpt>
      <trkpt lat="44.52439" lon="6.80831">
        <ele>1941.04</ele>
        <time>2016-02-25T08:10:54Z</time>
      </trkpt>
      <trkpt lat="44.52392" lon="6.80878">
        <ele>1943.44</ele>
        <time>2016-02-25T08:11:54Z</time>
      </trkpt>
      <trkpt lat="44.52365" lon="6.80954">
        <ele>1958.34</ele>
        <time>2016-02-25T08:12:54Z</time>
      </trkpt>
      <trkpt lat="44.52341" lon="6.81026">
        <ele>1972.28</ele>
        <time>2016-02-25T08:13:54Z</time>
      </trkpt>
      <trkpt lat="44.52313" lon="6.81096">
        <ele>1984.78</ele>
        <time>2016-02-25T08:14:54Z</time>
      </trkpt>
      <trkpt lat="44.52274" lon="6.81169">
        <ele>1996.32</ele>
        <time>2016-02-25T08:15:54Z</time>
      </trkpt>
      <trkpt lat="44.52229" lon="6.8123">
        <ele>2006.41</ele>
        <time>2016-02-25T08:16:54Z</time>
      </trkpt>
      <trkpt lat="44.52184" lon="6.81298">
        <ele>2018.43</ele>
        <time>2016-02-25T08:17:54Z</time>
      </trkpt>
      <trkpt lat="44.52118" lon="6.81358">
        <ele>2022.75</ele>
        <time>2016-02-25T08:18:54Z</time>
      </trkpt>
      <trkpt lat="44.52058" lon="6.81408">
        <ele>2029</ele>
        <time>2016-02-25T08:19:54Z</time>
      </trkpt>
      <trkpt lat="44.52007" lon="6.81491">
        <ele>2032.36</ele>
        <time>2016-02-25T08:20:54Z</time>
      </trkpt>
      <trkpt lat="44.51973" lon="6.81546">
        <ele>2047.26</ele>
        <time>2016-02-25T08:21:54Z</time>
      </trkpt>
      <trkpt lat="44.51944" lon="6.81601">
        <ele>2058.32</ele>
        <time>2016-02-25T08:22:54Z</time>
      </trkpt>
      <trkpt lat="44.51896" lon="6.81651">
        <ele>2071.3</ele>
        <time>2016-02-25T08:23:54Z</time>
      </trkpt>
      <trkpt lat="44.51902" lon="6.81715">
        <ele>2078.99</ele>
        <time>2016-02-25T08:24:54Z</time>
      </trkpt>
      <trkpt lat="44.51868" lon="6.81779">
        <ele>2095.33</ele>
        <time>2016-02-25T08:25:54Z</time>
      </trkpt>
      <trkpt lat="44.51832" lon="6.81833">
        <ele>2109.75</ele>
        <time>2016-02-25T08:26:54Z</time>
      </trkpt>
      <trkpt lat="44.518" lon="6.81896">
        <ele>2119.84</ele>
        <time>2016-02-25T08:27:54Z</time>
      </trkpt>
      <trkpt lat="44.51757" lon="6.81956">
        <ele>2129.46</ele>
        <time>2016-02-25T08:28:54Z</time>
      </trkpt>
      <trkpt lat="44.51713" lon="6.82017">
        <ele>2135.23</ele>
        <time>2016-02-25T08:29:54Z</time>
      </trkpt>
      <trkpt lat="44.51687" lon="6.8209">
        <ele>2145.32</ele>
        <time>2016-02-25T08:30:54Z</time>
      </trkpt>
      <trkpt lat="44.5166" lon="6.82155">
        <ele>2159.26</ele>
        <time>2016-02-25T08:31:54Z</time>
      </trkpt>
      <trkpt lat="44.51642" lon="6.82197">
        <ele>2168.39</ele>
        <time>2016-02-25T08:32:54Z</time>
      </trkpt>
      <trkpt lat="44.51634" lon="6.82246">
        <ele>2183.29</ele>
        <time>2016-02-25T08:33:54Z</time>
      </trkpt>
      <trkpt lat="44.516" lon="6.82307">
        <ele>2191.46</ele>
        <time>2016-02-25T08:34:54Z</time>
      </trkpt>
      <trkpt lat="44.51576" lon="6.82373">
        <ele>2196.75</ele>
        <time>2016-02-25T08:35:54Z</time>
      </trkpt>
      <trkpt lat="44.51546" lon="6.82416">
        <ele>2203.96</ele>
        <time>2016-02-25T08:36:54Z</time>
      </trkpt>
      <trkpt lat="44.51547" lon="6.82419">
        <ele>2202.52</ele>
        <time>2016-02-25T08:37:54Z</time>
      </trkpt>
      <trkpt lat="44.51545" lon="6.82477">
        <ele>2212.61</ele>
        <time>2016-02-25T08:38:54Z</time>
      </trkpt>
      <trkpt lat="44.5152" lon="6.82543">
        <ele>2216.94</ele>
        <time>2016-02-25T08:39:54Z</time>
      </trkpt>
      <trkpt lat="44.51493" lon="6.82597">
        <ele>2221.74</ele>
        <time>2016-02-25T08:40:54Z</time>
      </trkpt>
      <trkpt lat="44.51454" lon="6.8268">
        <ele>2225.11</ele>
        <time>2016-02-25T08:41:54Z</time>
      </trkpt>
      <trkpt lat="44.51422" lon="6.82757">
        <ele>2232.32</ele>
        <time>2016-02-25T08:42:54Z</time>
      </trkpt>
      <trkpt lat="44.51387" lon="6.8284">
        <ele>2240.97</ele>
        <time>2016-02-25T08:43:54Z</time>
      </trkpt>
      <trkpt lat="44.51356" lon="6.82913">
        <ele>2248.18</ele>
        <time>2016-02-25T08:44:54Z</time>
      </trkpt>
      <trkpt lat="44.51324" lon="6.82993">
        <ele>2254.91</ele>
        <time>2016-02-25T08:45:54Z</time>
      </trkpt>
      <trkpt lat="44.51301" lon="6.8307">
        <ele>2264.04</ele>
        <time>2016-02-25T08:46:54Z</time>
      </trkpt>
      <trkpt lat="44.51279" lon="6.8315">
        <ele>2270.77</ele>
        <time>2016-02-25T08:47:54Z</time>
      </trkpt>
      <trkpt lat="44.51258" lon="6.83229">
        <ele>2279.42</ele>
        <time>2016-02-25T08:48:54Z</time>
      </trkpt>
      <trkpt lat="44.51242" lon="6.8331">
        <ele>2288.08</ele>
        <time>2016-02-25T08:49:54Z</time>
      </trkpt>
      <trkpt lat="44.51221" lon="6.83363">
        <ele>2293.84</ele>
        <time>2016-02-25T08:50:54Z</time>
      </trkpt>
      <trkpt lat="44.51186" lon="6.83425">
        <ele>2299.61</ele>
        <time>2016-02-25T08:51:54Z</time>
      </trkpt>
      <trkpt lat="44.51153" lon="6.83484">
        <ele>2307.3</ele>
        <time>2016-02-25T08:52:54Z</time>
      </trkpt>
      <trkpt lat="44.51134" lon="6.83542">
        <ele>2315.95</ele>
        <time>2016-02-25T08:53:54Z</time>
      </trkpt>
      <trkpt lat="44.5111" lon="6.83603">
        <ele>2323.64</ele>
        <time>2016-02-25T08:54:54Z</time>
      </trkpt>
      <trkpt lat="44.51099" lon="6.8364">
        <ele>2329.41</ele>
        <time>2016-02-25T08:55:54Z</time>
      </trkpt>
      <trkpt lat="44.51108" lon="6.83676">
        <ele>2336.14</ele>
        <time>2016-02-25T08:56:54Z</time>
      </trkpt>
      <trkpt lat="44.511" lon="6.83756">
        <ele>2343.35</ele>
        <time>2016-02-25T08:57:54Z</time>
      </trkpt>
      <trkpt lat="44.51125" lon="6.83817">
        <ele>2355.37</ele>
        <time>2016-02-25T08:58:54Z</time>
      </trkpt>
      <trkpt lat="44.51151" lon="6.83876">
        <ele>2364.5</ele>
        <time>2016-02-25T08:59:54Z</time>
      </trkpt>
      <trkpt lat="44.51177" lon="6.83921">
        <ele>2377.48</ele>
        <time>2016-02-25T09:00:54Z</time>
      </trkpt>
      <trkpt lat="44.51203" lon="6.8394">
        <ele>2390.46</ele>
        <time>2016-02-25T09:01:54Z</time>
      </trkpt>
      <trkpt lat="44.51226" lon="6.83954">
        <ele>2406.32</ele>
        <time>2016-02-25T09:02:54Z</time>
      </trkpt>
      <trkpt lat="44.51223" lon="6.84012">
        <ele>2414.01</ele>
        <time>2016-02-25T09:03:54Z</time>
      </trkpt>
      <trkpt lat="44.51218" lon="6.84043">
        <ele>2423.62</ele>
        <time>2016-02-25T09:04:54Z</time>
      </trkpt>
      <trkpt lat="44.5121" lon="6.84064">
        <ele>2425.06</ele>
        <time>2016-02-25T09:05:54Z</time>
      </trkpt>
      <trkpt lat="44.5121" lon="6.8408">
        <ele>2426.99</ele>
        <time>2016-02-25T09:06:54Z</time>
      </trkpt>
      <trkpt lat="44.5121" lon="6.84157">
        <ele>2433.23</ele>
        <time>2016-02-25T09:07:54Z</time>
      </trkpt>
      <trkpt lat="44.51195" lon="6.84207">
        <ele>2444.77</ele>
        <time>2016-02-25T09:08:54Z</time>
      </trkpt>
      <trkpt lat="44.51185" lon="6.84262">
        <ele>2454.38</ele>
        <time>2016-02-25T09:09:54Z</time>
      </trkpt>
      <trkpt lat="44.51174" lon="6.84329">
        <ele>2462.55</ele>
        <time>2016-02-25T09:10:54Z</time>
      </trkpt>
      <trkpt lat="44.51166" lon="6.8438">
        <ele>2474.09</ele>
        <time>2016-02-25T09:11:54Z</time>
      </trkpt>
      <trkpt lat="44.51163" lon="6.84423">
        <ele>2482.74</ele>
        <time>2016-02-25T09:12:54Z</time>
      </trkpt>
      <trkpt lat="44.51151" lon="6.84458">
        <ele>2495.24</ele>
        <time>2016-02-25T09:13:54Z</time>
      </trkpt>
      <trkpt lat="44.51166" lon="6.84485">
        <ele>2511.1</ele>
        <time>2016-02-25T09:14:54Z</time>
      </trkpt>
      <trkpt lat="44.51174" lon="6.84515">
        <ele>2518.31</ele>
        <time>2016-02-25T09:15:54Z</time>
      </trkpt>
      <trkpt lat="44.51174" lon="6.84528">
        <ele>2526.48</ele>
        <time>2016-02-25T09:16:54Z</time>
      </trkpt>
      <trkpt lat="44.51188" lon="6.84546">
        <ele>2531.29</ele>
        <time>2016-02-25T09:17:54Z</time>
      </trkpt>
      <trkpt lat="44.51178" lon="6.84564">
        <ele>2538.02</ele>
        <time>2016-02-25T09:18:54Z</time>
      </trkpt>
      <trkpt lat="44.51186" lon="6.84579">
        <ele>2549.55</ele>
        <time>2016-02-25T09:19:54Z</time>
      </trkpt>
      <trkpt lat="44.51183" lon="6.84598">
        <ele>2554.36</ele>
        <time>2016-02-25T09:20:54Z</time>
      </trkpt>
      <trkpt lat="44.51151" lon="6.84632">
        <ele>2567.82</ele>
        <time>2016-02-25T09:21:54Z</time>
      </trkpt>
      <trkpt lat="44.51154" lon="6.84648">
        <ele>2575.03</ele>
        <time>2016-02-25T09:22:54Z</time>
      </trkpt>
      <trkpt lat="44.51159" lon="6.84658">
        <ele>2579.84</ele>
        <time>2016-02-25T09:23:54Z</time>
      </trkpt>
      <trkpt lat="44.51168" lon="6.8468">
        <ele>2592.81</ele>
        <time>2016-02-25T09:24:54Z</time>
      </trkpt>
      <trkpt lat="44.51171" lon="6.84695">
        <ele>2602.91</ele>
        <time>2016-02-25T09:25:54Z</time>
      </trkpt>
      <trkpt lat="44.51186" lon="6.847">
        <ele>2605.31</ele>
        <time>2016-02-25T09:26:54Z</time>
      </trkpt>
      <trkpt lat="44.51191" lon="6.84713">
        <ele>2615.4</ele>
        <time>2016-02-25T09:27:54Z</time>
      </trkpt>
      <trkpt lat="44.512" lon="6.84727">
        <ele>2625.98</ele>
        <time>2016-02-25T09:28:54Z</time>
      </trkpt>
      <trkpt lat="44.51205" lon="6.84738">
        <ele>2633.19</ele>
        <time>2016-02-25T09:29:54Z</time>
      </trkpt>
      <trkpt lat="44.51187" lon="6.84756">
        <ele>2639.92</ele>
        <time>2016-02-25T09:30:54Z</time>
      </trkpt>
      <trkpt lat="44.51195" lon="6.84765">
        <ele>2642.32</ele>
        <time>2016-02-25T09:31:54Z</time>
      </trkpt>
      <trkpt lat="44.51189" lon="6.84775">
        <ele>2649.05</ele>
        <time>2016-02-25T09:32:54Z</time>
      </trkpt>
      <trkpt lat="44.51208" lon="6.84789">
        <ele>2658.18</ele>
        <time>2016-02-25T09:33:54Z</time>
      </trkpt>
      <trkpt lat="44.51219" lon="6.84795">
        <ele>2664.91</ele>
        <time>2016-02-25T09:34:54Z</time>
      </trkpt>
      <trkpt lat="44.51222" lon="6.84811">
        <ele>2675.49</ele>
        <time>2016-02-25T09:35:54Z</time>
      </trkpt>
      <trkpt lat="44.51244" lon="6.84817">
        <ele>2682.7</ele>
        <time>2016-02-25T09:36:54Z</time>
      </trkpt>
      <trkpt lat="44.51252" lon="6.84819">
        <ele>2687.5</ele>
        <time>2016-02-25T09:37:54Z</time>
      </trkpt>
      <trkpt lat="44.51284" lon="6.84838">
        <ele>2703.85</ele>
        <time>2016-02-25T09:38:54Z</time>
      </trkpt>
      <trkpt lat="44.51279" lon="6.84865">
        <ele>2716.34</ele>
        <time>2016-02-25T09:39:54Z</time>
      </trkpt>
      <trkpt lat="44.51306" lon="6.84869">
        <ele>2727.88</ele>
        <time>2016-02-25T09:40:54Z</time>
      </trkpt>
      <trkpt lat="44.51321" lon="6.84885">
        <ele>2737.49</ele>
        <time>2016-02-25T09:41:54Z</time>
      </trkpt>
      <trkpt lat="44.51331" lon="6.84885">
        <ele>2746.14</ele>
        <time>2016-02-25T09:42:54Z</time>
      </trkpt>
      <trkpt lat="44.51335" lon="6.8491">
        <ele>2755.28</ele>
        <time>2016-02-25T09:43:53Z</time>
      </trkpt>
      <trkpt lat="44.51335" lon="6.84925">
        <ele>2761.52</ele>
        <time>2016-02-25T09:44:54Z</time>
      </trkpt>
      <trkpt lat="44.51345" lon="6.84943">
        <ele>2771.62</ele>
        <time>2016-02-25T09:45:54Z</time>
      </trkpt>
      <trkpt lat="44.51343" lon="6.84947">
        <ele>2778.83</ele>
        <time>2016-02-25T09:46:54Z</time>
      </trkpt>
      <trkpt lat="44.51368" lon="6.84939">
        <ele>2791.81</ele>
        <time>2016-02-25T09:47:54Z</time>
      </trkpt>
      <trkpt lat="44.51382" lon="6.84959">
        <ele>2801.9</ele>
        <time>2016-02-25T09:48:54Z</time>
      </trkpt>
      <trkpt lat="44.51393" lon="6.84992">
        <ele>2805.75</ele>
        <time>2016-02-25T09:49:54Z</time>
      </trkpt>
      <trkpt lat="44.51394" lon="6.85016">
        <ele>2815.36</ele>
        <time>2016-02-25T09:50:54Z</time>
      </trkpt>
      <trkpt lat="44.51401" lon="6.85063">
        <ele>2819.2</ele>
        <time>2016-02-25T09:51:54Z</time>
      </trkpt>
      <trkpt lat="44.51401" lon="6.85074">
        <ele>2820.16</ele>
        <time>2016-02-25T09:52:54Z</time>
      </trkpt>
      <trkpt lat="44.51401" lon="6.85075">
        <ele>2821.13</ele>
        <time>2016-02-25T09:53:54Z</time>
      </trkpt>
      <trkpt lat="44.514" lon="6.85076">
        <ele>2820.16</ele>
        <time>2016-02-25T09:54:54Z</time>
      </trkpt>
      <trkpt lat="44.514" lon="6.85073">
        <ele>2821.61</ele>
        <time>2016-02-25T09:55:54Z</time>
      </trkpt>
      <trkpt lat="44.51413" lon="6.8512">
        <ele>2824.49</ele>
        <time>2016-02-25T09:56:54Z</time>
      </trkpt>
      <trkpt lat="44.51439" lon="6.85144">
        <ele>2838.43</ele>
        <time>2016-02-25T09:57:54Z</time>
      </trkpt>
      <trkpt lat="44.51449" lon="6.85169">
        <ele>2851.41</ele>
        <time>2016-02-25T09:58:54Z</time>
      </trkpt>
      <trkpt lat="44.51452" lon="6.85196">
        <ele>2863.42</ele>
        <time>2016-02-25T09:59:54Z</time>
      </trkpt>
      <trkpt lat="44.51441" lon="6.8523">
        <ele>2869.19</ele>
        <time>2016-02-25T10:00:54Z</time>
      </trkpt>
      <trkpt lat="44.5146" lon="6.85234">
        <ele>2883.13</ele>
        <time>2016-02-25T10:01:53Z</time>
      </trkpt>
      <trkpt lat="44.51472" lon="6.85252">
        <ele>2892.26</ele>
        <time>2016-02-25T10:02:54Z</time>
      </trkpt>
      <trkpt lat="44.51468" lon="6.85271">
        <ele>2901.4</ele>
        <time>2016-02-25T10:03:54Z</time>
      </trkpt>
      <trkpt lat="44.51495" lon="6.85282">
        <ele>2912.93</ele>
        <time>2016-02-25T10:04:54Z</time>
      </trkpt>
      <trkpt lat="44.51521" lon="6.85296">
        <ele>2921.58</ele>
        <time>2016-02-25T10:05:54Z</time>
      </trkpt>
      <trkpt lat="44.51553" lon="6.853">
        <ele>2932.64</ele>
        <time>2016-02-25T10:06:54Z</time>
      </trkpt>
      <trkpt lat="44.51582" lon="6.853">
        <ele>2940.81</ele>
        <time>2016-02-25T10:07:54Z</time>
      </trkpt>
      <trkpt lat="44.51587" lon="6.85312">
        <ele>2947.54</ele>
        <time>2016-02-25T10:08:54Z</time>
      </trkpt>
      <trkpt lat="44.51589" lon="6.85337">
        <ele>2958.11</ele>
        <time>2016-02-25T10:09:53Z</time>
      </trkpt>
      <trkpt lat="44.51577" lon="6.85361">
        <ele>2972.05</ele>
        <time>2016-02-25T10:10:54Z</time>
      </trkpt>
      <trkpt lat="44.51549" lon="6.85391">
        <ele>2980.22</ele>
        <time>2016-02-25T10:11:54Z</time>
      </trkpt>
      <trkpt lat="44.51534" lon="6.85425">
        <ele>2994.16</ele>
        <time>2016-02-25T10:12:54Z</time>
      </trkpt>
      <trkpt lat="44.51497" lon="6.85465">
        <ele>3011.95</ele>
        <time>2016-02-25T10:13:54Z</time>
      </trkpt>
      <trkpt lat="44.5144" lon="6.85475">
        <ele>3017.23</ele>
        <time>2016-02-25T10:14:54Z</time>
      </trkpt>
      <trkpt lat="44.51407" lon="6.85483">
        <ele>3020.6</ele>
        <time>2016-02-25T10:15:54Z</time>
      </trkpt>
      <trkpt lat="44.5138" lon="6.85494">
        <ele>3024.44</ele>
        <time>2016-02-25T10:16:54Z</time>
      </trkpt>
      <trkpt lat="44.51347" lon="6.85513">
        <ele>3024.93</ele>
        <time>2016-02-25T10:17:54Z</time>
      </trkpt>
      <trkpt lat="44.51309" lon="6.85545">
        <ele>3025.41</ele>
        <time>2016-02-25T10:18:54Z</time>
      </trkpt>
      <trkpt lat="44.51302" lon="6.85549">
        <ele>3023</ele>
        <time>2016-02-25T10:19:54Z</time>
      </trkpt>
      <trkpt lat="44.51301" lon="6.85548">
        <ele>3023.96</ele>
        <time>2016-02-25T10:20:54Z</time>
      </trkpt>
      <trkpt lat="44.51276" lon="6.85564">
        <ele>3025.89</ele>
        <time>2016-02-25T10:21:54Z</time>
      </trkpt>
      <trkpt lat="44.51259" lon="6.85562">
        <ele>3036.46</ele>
        <time>2016-02-25T10:22:53Z</time>
      </trkpt>
      <trkpt lat="44.51258" lon="6.85567">
        <ele>3038.86</ele>
        <time>2016-02-25T10:23:54Z</time>
      </trkpt>
      <trkpt lat="44.51257" lon="6.85579">
        <ele>3042.23</ele>
        <time>2016-02-25T10:24:54Z</time>
      </trkpt>
      <trkpt lat="44.51245" lon="6.85583">
        <ele>3044.63</ele>
        <time>2016-02-25T10:25:54Z</time>
      </trkpt>
      <trkpt lat="44.51249" lon="6.85596">
        <ele>3049.92</ele>
        <time>2016-02-25T10:26:54Z</time>
      </trkpt>
      <trkpt lat="44.51236" lon="6.85605">
        <ele>3058.09</ele>
        <time>2016-02-25T10:27:54Z</time>
      </trkpt>
      <trkpt lat="44.51244" lon="6.85613">
        <ele>3063.86</ele>
        <time>2016-02-25T10:28:54Z</time>
      </trkpt>
      <trkpt lat="44.51244" lon="6.85625">
        <ele>3066.26</ele>
        <time>2016-02-25T10:29:54Z</time>
      </trkpt>
      <trkpt lat="44.51247" lon="6.8563">
        <ele>3071.07</ele>
        <time>2016-02-25T10:30:54Z</time>
      </trkpt>
      <trkpt lat="44.51247" lon="6.8564">
        <ele>3076.36</ele>
        <time>2016-02-25T10:31:54Z</time>
      </trkpt>
      <trkpt lat="44.51245" lon="6.85645">
        <ele>3079.72</ele>
        <time>2016-02-25T10:32:54Z</time>
      </trkpt>
      <trkpt lat="44.51245" lon="6.8565">
        <ele>3083.57</ele>
        <time>2016-02-25T10:33:54Z</time>
      </trkpt>
      <trkpt lat="44.51246" lon="6.85658">
        <ele>3085.97</ele>
        <time>2016-02-25T10:34:54Z</time>
      </trkpt>
      <trkpt lat="44.51248" lon="6.85665">
        <ele>3093.66</ele>
        <time>2016-02-25T10:35:54Z</time>
      </trkpt>
      <trkpt lat="44.51245" lon="6.85677">
        <ele>3097.02</ele>
        <time>2016-02-25T10:36:54Z</time>
      </trkpt>
      <trkpt lat="44.51245" lon="6.85683">
        <ele>3103.75</ele>
        <time>2016-02-25T10:37:53Z</time>
      </trkpt>
      <trkpt lat="44.51243" lon="6.85693">
        <ele>3110.48</ele>
        <time>2016-02-25T10:38:53Z</time>
      </trkpt>
      <trkpt lat="44.51232" lon="6.85695">
        <ele>3114.33</ele>
        <time>2016-02-25T10:39:54Z</time>
      </trkpt>
      <trkpt lat="44.51234" lon="6.85699">
        <ele>3115.77</ele>
        <time>2016-02-25T10:40:53Z</time>
      </trkpt>
      <trkpt lat="44.51231" lon="6.85707">
        <ele>3120.1</ele>
        <time>2016-02-25T10:41:54Z</time>
      </trkpt>
      <trkpt lat="44.51224" lon="6.85712">
        <ele>3125.38</ele>
        <time>2016-02-25T10:42:54Z</time>
      </trkpt>
      <trkpt lat="44.51217" lon="6.85712">
        <ele>3128.75</ele>
        <time>2016-02-25T10:43:54Z</time>
      </trkpt>
      <trkpt lat="44.51217" lon="6.85712">
        <ele>3130.19</ele>
        <time>2016-02-25T10:44:54Z</time>
      </trkpt>
      <trkpt lat="44.51213" lon="6.85718">
        <ele>3135.48</ele>
        <time>2016-02-25T10:45:54Z</time>
      </trkpt>
      <trkpt lat="44.5121" lon="6.85722">
        <ele>3140.76</ele>
        <time>2016-02-25T10:46:54Z</time>
      </trkpt>
      <trkpt lat="44.51202" lon="6.85725">
        <ele>3144.61</ele>
        <time>2016-02-25T10:47:54Z</time>
      </trkpt>
      <trkpt lat="44.512" lon="6.85725">
        <ele>3142.69</ele>
        <time>2016-02-25T10:48:54Z</time>
      </trkpt>
      <trkpt lat="44.51198" lon="6.85725">
        <ele>3142.21</ele>
        <time>2016-02-25T10:49:54Z</time>
      </trkpt>
      <trkpt lat="44.51197" lon="6.85726">
        <ele>3142.21</ele>
        <time>2016-02-25T10:50:54Z</time>
      </trkpt>
      <trkpt lat="44.51196" lon="6.85726">
        <ele>3141.25</ele>
        <time>2016-02-25T10:51:54Z</time>
      </trkpt>
      <trkpt lat="44.51197" lon="6.85727">
        <ele>3141.25</ele>
        <time>2016-02-25T10:52:54Z</time>
      </trkpt>
      <trkpt lat="44.51197" lon="6.85728">
        <ele>3141.73</ele>
        <time>2016-02-25T10:53:54Z</time>
      </trkpt>
      <trkpt lat="44.51198" lon="6.85728">
        <ele>3142.69</ele>
        <time>2016-02-25T10:54:54Z</time>
      </trkpt>
      <trkpt lat="44.51198" lon="6.85735">
        <ele>3145.57</ele>
        <time>2016-02-25T10:55:54Z</time>
      </trkpt>
      <trkpt lat="44.51199" lon="6.85736">
        <ele>3146.53</ele>
        <time>2016-02-25T10:56:54Z</time>
      </trkpt>
      <trkpt lat="44.51191" lon="6.85757">
        <ele>3158.55</ele>
        <time>2016-02-25T10:57:54Z</time>
      </trkpt>
      <trkpt lat="44.51187" lon="6.85779">
        <ele>3172.49</ele>
        <time>2016-02-25T10:58:53Z</time>
      </trkpt>
      <trkpt lat="44.5119" lon="6.85795">
        <ele>3179.22</ele>
        <time>2016-02-25T10:59:54Z</time>
      </trkpt>
      <trkpt lat="44.51201" lon="6.85804">
        <ele>3186.43</ele>
        <time>2016-02-25T11:00:53Z</time>
      </trkpt>
      <trkpt lat="44.51222" lon="6.85822">
        <ele>3197</ele>
        <time>2016-02-25T11:01:54Z</time>
      </trkpt>
      <trkpt lat="44.51251" lon="6.85837">
        <ele>3206.61</ele>
        <time>2016-02-25T11:02:54Z</time>
      </trkpt>
      <trkpt lat="44.51256" lon="6.85847">
        <ele>3210.94</ele>
        <time>2016-02-25T11:03:54Z</time>
      </trkpt>
      <trkpt lat="44.51256" lon="6.85845">
        <ele>3210.46</ele>
        <time>2016-02-25T11:04:54Z</time>
      </trkpt>
      <trkpt lat="44.51256" lon="6.85845">
        <ele>3210.94</ele>
        <time>2016-02-25T11:05:54Z</time>
      </trkpt>
      <trkpt lat="44.51256" lon="6.85846">
        <ele>3210.94</ele>
        <time>2016-02-25T11:06:54Z</time>
      </trkpt>
      <trkpt lat="44.51256" lon="6.85847">
        <ele>3210.94</ele>
        <time>2016-02-25T11:07:54Z</time>
      </trkpt>
      <trkpt lat="44.51256" lon="6.85846">
        <ele>3209.5</ele>
        <time>2016-02-25T11:08:54Z</time>
      </trkpt>
      <trkpt lat="44.51255" lon="6.85846">
        <ele>3208.54</ele>
        <time>2016-02-25T11:09:54Z</time>
      </trkpt>
      <trkpt lat="44.51255" lon="6.85847">
        <ele>3208.06</ele>
        <time>2016-02-25T11:10:54Z</time>
      </trkpt>
      <trkpt lat="44.51255" lon="6.85847">
        <ele>3207.58</ele>
        <time>2016-02-25T11:11:54Z</time>
      </trkpt>
      <trkpt lat="44.51255" lon="6.85847">
        <ele>3207.58</ele>
        <time>2016-02-25T11:12:54Z</time>
      </trkpt>
      <trkpt lat="44.51255" lon="6.85847">
        <ele>3207.1</ele>
        <time>2016-02-25T11:13:54Z</time>
      </trkpt>
      <trkpt lat="44.51234" lon="6.85828">
        <ele>3201.81</ele>
        <time>2016-02-25T11:14:54Z</time>
      </trkpt>
      <trkpt lat="44.5122" lon="6.85819">
        <ele>3197.48</ele>
        <time>2016-02-25T11:15:54Z</time>
      </trkpt>
      <trkpt lat="44.51215" lon="6.85813">
        <ele>3195.56</ele>
        <time>2016-02-25T11:16:54Z</time>
      </trkpt>
      <trkpt lat="44.51195" lon="6.85802">
        <ele>3183.54</ele>
        <time>2016-02-25T11:17:54Z</time>
      </trkpt>
      <trkpt lat="44.51189" lon="6.85765">
        <ele>3165.76</ele>
        <time>2016-02-25T11:18:54Z</time>
      </trkpt>
      <trkpt lat="44.512" lon="6.85726">
        <ele>3146.05</ele>
        <time>2016-02-25T11:19:54Z</time>
      </trkpt>
      <trkpt lat="44.51213" lon="6.85714">
        <ele>3135.48</ele>
        <time>2016-02-25T11:20:54Z</time>
      </trkpt>
      <trkpt lat="44.51213" lon="6.85707">
        <ele>3129.71</ele>
        <time>2016-02-25T11:21:54Z</time>
      </trkpt>
      <trkpt lat="44.51221" lon="6.85695">
        <ele>3122.98</ele>
        <time>2016-02-25T11:22:54Z</time>
      </trkpt>
      <trkpt lat="44.51223" lon="6.85679">
        <ele>3111.92</ele>
        <time>2016-02-25T11:23:54Z</time>
      </trkpt>
      <trkpt lat="44.51217" lon="6.85656">
        <ele>3103.75</ele>
        <time>2016-02-25T11:24:54Z</time>
      </trkpt>
      <trkpt lat="44.51219" lon="6.85659">
        <ele>3105.2</ele>
        <time>2016-02-25T11:25:54Z</time>
      </trkpt>
      <trkpt lat="44.51221" lon="6.85659">
        <ele>3103.75</ele>
        <time>2016-02-25T11:26:54Z</time>
      </trkpt>
      <trkpt lat="44.51221" lon="6.8566">
        <ele>3103.75</ele>
        <time>2016-02-25T11:27:54Z</time>
      </trkpt>
      <trkpt lat="44.51222" lon="6.85659">
        <ele>3104.71</ele>
        <time>2016-02-25T11:28:54Z</time>
      </trkpt>
      <trkpt lat="44.51223" lon="6.85661">
        <ele>3103.75</ele>
        <time>2016-02-25T11:29:54Z</time>
      </trkpt>
      <trkpt lat="44.51222" lon="6.85661">
        <ele>3103.27</ele>
        <time>2016-02-25T11:30:54Z</time>
      </trkpt>
      <trkpt lat="44.51223" lon="6.85659">
        <ele>3103.75</ele>
        <time>2016-02-25T11:31:54Z</time>
      </trkpt>
      <trkpt lat="44.51224" lon="6.85658">
        <ele>3103.27</ele>
        <time>2016-02-25T11:32:54Z</time>
      </trkpt>
      <trkpt lat="44.5125" lon="6.85658">
        <ele>3092.22</ele>
        <time>2016-02-25T11:33:54Z</time>
      </trkpt>
      <trkpt lat="44.51254" lon="6.85622">
        <ele>3069.63</ele>
        <time>2016-02-25T11:34:54Z</time>
      </trkpt>
      <trkpt lat="44.5127" lon="6.85579">
        <ele>3043.67</ele>
        <time>2016-02-25T11:35:54Z</time>
      </trkpt>
      <trkpt lat="44.51375" lon="6.85501">
        <ele>3009.54</ele>
        <time>2016-02-25T11:36:54Z</time>
      </trkpt>
      <trkpt lat="44.51455" lon="6.85471">
        <ele>2996.09</ele>
        <time>2016-02-25T11:37:54Z</time>
      </trkpt>
      <trkpt lat="44.51518" lon="6.85453">
        <ele>2997.05</ele>
        <time>2016-02-25T11:38:54Z</time>
      </trkpt>
      <trkpt lat="44.51567" lon="6.85317">
        <ele>2954.75</ele>
        <time>2016-02-25T11:39:54Z</time>
      </trkpt>
      <trkpt lat="44.51485" lon="6.85177">
        <ele>2868.71</ele>
        <time>2016-02-25T11:40:54Z</time>
      </trkpt>
      <trkpt lat="44.51399" lon="6.85044">
        <ele>2823.53</ele>
        <time>2016-02-25T11:41:54Z</time>
      </trkpt>
      <trkpt lat="44.51381" lon="6.84988">
        <ele>2796.61</ele>
        <time>2016-02-25T11:42:54Z</time>
      </trkpt>
      <trkpt lat="44.51333" lon="6.84947">
        <ele>2774.98</ele>
        <time>2016-02-25T11:43:54Z</time>
      </trkpt>
      <trkpt lat="44.51261" lon="6.84866">
        <ele>2727.4</ele>
        <time>2016-02-25T11:44:54Z</time>
      </trkpt>
      <trkpt lat="44.51247" lon="6.84863">
        <ele>2718.27</ele>
        <time>2016-02-25T11:45:54Z</time>
      </trkpt>
      <trkpt lat="44.51239" lon="6.84852">
        <ele>2714.9</ele>
        <time>2016-02-25T11:46:54Z</time>
      </trkpt>
      <trkpt lat="44.51192" lon="6.84746">
        <ele>2663.47</ele>
        <time>2016-02-25T11:47:54Z</time>
      </trkpt>
      <trkpt lat="44.51191" lon="6.8475">
        <ele>2657.22</ele>
        <time>2016-02-25T11:48:54Z</time>
      </trkpt>
      <trkpt lat="44.51168" lon="6.84666">
        <ele>2599.54</ele>
        <time>2016-02-25T11:49:54Z</time>
      </trkpt>
      <trkpt lat="44.5114" lon="6.84628">
        <ele>2573.59</ele>
        <time>2016-02-25T11:50:54Z</time>
      </trkpt>
      <trkpt lat="44.51111" lon="6.84535">
        <ele>2548.11</ele>
        <time>2016-02-25T11:51:54Z</time>
      </trkpt>
      <trkpt lat="44.51074" lon="6.84279">
        <ele>2467.84</ele>
        <time>2016-02-25T11:52:54Z</time>
      </trkpt>
      <trkpt lat="44.5108" lon="6.84257">
        <ele>2458.23</ele>
        <time>2016-02-25T11:53:54Z</time>
      </trkpt>
      <trkpt lat="44.51076" lon="6.84015">
        <ele>2388.05</ele>
        <time>2016-02-25T11:54:54Z</time>
      </trkpt>
      <trkpt lat="44.51139" lon="6.83549">
        <ele>2323.16</ele>
        <time>2016-02-25T11:55:54Z</time>
      </trkpt>
      <trkpt lat="44.51324" lon="6.83132">
        <ele>2277.02</ele>
        <time>2016-02-25T11:56:54Z</time>
      </trkpt>
      <trkpt lat="44.51466" lon="6.82783">
        <ele>2248.66</ele>
        <time>2016-02-25T11:57:54Z</time>
      </trkpt>
      <trkpt lat="44.51664" lon="6.82455">
        <ele>2215.5</ele>
        <time>2016-02-25T11:58:54Z</time>
      </trkpt>
      <trkpt lat="44.5178" lon="6.82156">
        <ele>2162.14</ele>
        <time>2016-02-25T11:59:54Z</time>
      </trkpt>
      <trkpt lat="44.51889" lon="6.81816">
        <ele>2088.6</ele>
        <time>2016-02-25T12:00:53Z</time>
      </trkpt>
      <trkpt lat="44.51942" lon="6.81588">
        <ele>2051.11</ele>
        <time>2016-02-25T12:01:54Z</time>
      </trkpt>
      <trkpt lat="44.52061" lon="6.81319">
        <ele>2012.18</ele>
        <time>2016-02-25T12:02:54Z</time>
      </trkpt>
      <trkpt lat="44.52287" lon="6.8112">
        <ele>1980.93</ele>
        <time>2016-02-25T12:03:54Z</time>
      </trkpt>
      <trkpt lat="44.52534" lon="6.80729">
        <ele>1917.49</ele>
        <time>2016-02-25T12:04:54Z</time>
      </trkpt>
      <trkpt lat="44.52582" lon="6.8051">
        <ele>1904.03</ele>
        <time>2016-02-25T12:05:54Z</time>
      </trkpt>
      <trkpt lat="44.52553" lon="6.80133">
        <ele>1886.24</ele>
        <time>2016-02-25T12:06:54Z</time>
      </trkpt>
      <trkpt lat="44.52547" lon="6.80082">
        <ele>1889.13</ele>
        <time>2016-02-25T12:07:54Z</time>
      </trkpt>
      <trkpt lat="44.52539" lon="6.79994">
        <ele>1882.88</ele>
        <time>2016-02-25T12:08:54Z</time>
      </trkpt>
      <trkpt lat="44.52533" lon="6.79982">
        <ele>1883.84</ele>
        <time>2016-02-25T12:09:54Z</time>
      </trkpt>
      <trkpt lat="44.52533" lon="6.79981">
        <ele>1884.8</ele>
        <time>2016-02-25T12:10:54Z</time>
      </trkpt>
    </trkseg>
  </trk>
</gpx>